createdAt,value
2023-04-25T00:01:16.605Z,95808.84
2023-04-25T00:02:50.984Z,95804.78
2023-04-25T00:04:23.292Z,95815.38
2023-04-25T00:05:57.872Z,95804.19
2023-04-25T00:07:29.604Z,95799.19
2023-04-25T00:09:04.581Z,95800.59
2023-04-25T00:10:36.263Z,95804.22
2023-04-25T00:12:08.006Z,95808.00
2023-04-25T00:13:42.877Z,95815.91
2023-04-25T00:15:14.540Z,95814.09
2023-04-25T00:16:46.207Z,95807.25
2023-04-25T00:18:18.912Z,95823.28
2023-04-25T00:19:50.884Z,95816.84
2023-04-25T00:21:26.908Z,95807.59
2023-04-25T00:23:26.915Z,95809.97
2023-04-25T00:25:24.706Z,95811.66
2023-04-25T00:26:56.359Z,95807.38
2023-04-25T00:28:28.074Z,95803.53
2023-04-25T00:29:59.715Z,95805.41
2023-04-25T00:31:31.490Z,95799.22
2023-04-25T00:33:03.429Z,95799.41
2023-04-25T00:34:37.674Z,95794.94
2023-04-25T00:36:09.648Z,95802.31
2023-04-25T00:37:44.711Z,95796.31
2023-04-25T00:39:16.522Z,95794.34
2023-04-25T00:40:53.302Z,95787.84
2023-04-25T00:42:25.110Z,95782.38
2023-04-25T00:43:56.826Z,95788.78
2023-04-25T00:45:38.807Z,95789.22
2023-04-25T00:47:17.763Z,95782.44
2023-04-25T00:48:49.471Z,95781.25
2023-04-25T00:50:21.075Z,95785.72
2023-04-25T00:51:52.742Z,95787.84
2023-04-25T00:53:27.148Z,95793.94
2023-04-25T00:54:58.801Z,95784.25
2023-04-25T00:56:30.557Z,95789.06
2023-04-25T00:58:02.120Z,95791.97
2023-04-25T00:59:33.804Z,95786.66
2023-04-25T01:01:05.577Z,95780.56
2023-04-25T01:02:37.462Z,95782.88
2023-04-25T01:04:09.426Z,95784.19
2023-04-25T01:05:41.305Z,95785.47
2023-04-25T01:07:12.936Z,95782.47
2023-04-25T01:08:54.952Z,95781.00
2023-04-25T01:10:26.595Z,95772.50
2023-04-25T01:11:58.644Z,95767.34
2023-04-25T01:13:30.375Z,95771.38
2023-04-25T01:15:01.989Z,95763.50
2023-04-25T01:16:34.248Z,95761.53
2023-04-25T01:18:06.543Z,95760.84
2023-04-25T01:19:38.476Z,95766.94
2023-04-25T01:21:14.661Z,95761.50
2023-04-25T01:22:46.273Z,95766.38
2023-04-25T01:24:19.685Z,95760.75
2023-04-25T01:26:00.285Z,95764.63
2023-04-25T01:27:36.064Z,95760.88
2023-04-25T01:29:07.822Z,95764.94
2023-04-25T01:30:46.621Z,95768.97
2023-04-25T01:32:18.382Z,95762.34
2023-04-25T01:33:50.276Z,95769.81
2023-04-25T01:35:22.999Z,95775.63
2023-04-25T01:36:57.636Z,95771.88
2023-04-25T01:38:29.313Z,95772.75
2023-04-25T01:40:07.194Z,95776.44
2023-04-25T01:41:38.949Z,95771.94
2023-04-25T01:43:12.963Z,95768.09
2023-04-25T01:44:44.640Z,95768.13
2023-04-25T01:46:16.344Z,95774.38
2023-04-25T01:47:50.247Z,95786.25
2023-04-25T01:49:22.227Z,95777.81
2023-04-25T01:50:53.839Z,95771.63
2023-04-25T01:52:26.859Z,95758.16
2023-04-25T01:54:00.834Z,95753.28
2023-04-25T01:55:32.654Z,95764.34
2023-04-25T01:57:04.364Z,95766.38
2023-04-25T01:58:36.027Z,95770.53
2023-04-25T02:00:09.556Z,95768.06
2023-04-25T02:01:41.197Z,95754.00
2023-04-25T02:03:13.071Z,95762.69
2023-04-25T02:04:44.903Z,95755.00
2023-04-25T02:06:16.632Z,95752.03
2023-04-25T02:07:49.819Z,95752.22
2023-04-25T02:09:21.522Z,95746.75
2023-04-25T02:10:53.187Z,95753.09
2023-04-25T02:12:27.154Z,95753.53
2023-04-25T02:13:58.780Z,95740.66
2023-04-25T02:15:30.673Z,95747.03
2023-04-25T02:17:02.606Z,95743.34
2023-04-25T02:18:34.341Z,95747.03
2023-04-25T02:20:06.974Z,95738.97
2023-04-25T02:21:38.599Z,95740.25
2023-04-25T02:23:11.625Z,95733.81
2023-04-25T02:24:43.281Z,95731.66
2023-04-25T02:26:15.020Z,95737.44
2023-04-25T02:27:46.677Z,95749.00
2023-04-25T02:29:18.667Z,95745.63
2023-04-25T02:30:50.273Z,95737.16
2023-04-25T02:32:22.003Z,95743.81
2023-04-25T02:33:53.651Z,95749.22
2023-04-25T02:35:25.344Z,95738.16
2023-04-25T02:36:57.239Z,95738.84
2023-04-25T02:38:30.355Z,95740.81
2023-04-25T02:40:02.247Z,95746.81
2023-04-25T02:41:33.981Z,95744.84
2023-04-25T02:43:05.758Z,95750.44
2023-04-25T02:44:37.430Z,95751.03
2023-04-25T02:46:09.096Z,95751.66
2023-04-25T02:47:40.898Z,95755.91
2023-04-25T02:49:12.515Z,95748.91
2023-04-25T02:50:44.284Z,95750.56
2023-04-25T02:52:15.984Z,95751.84
2023-04-25T02:53:49.460Z,95753.28
2023-04-25T02:55:21.564Z,95755.19
2023-04-25T02:56:53.152Z,95743.34
2023-04-25T02:58:24.974Z,95747.97
2023-04-25T02:59:56.664Z,95751.81
2023-04-25T03:01:28.441Z,95746.28
2023-04-25T03:03:00.269Z,95743.38
2023-04-25T03:04:32.555Z,95734.09
2023-04-25T03:06:04.508Z,95742.06
2023-04-25T03:07:36.267Z,95734.28
2023-04-25T03:09:09.297Z,95733.31
2023-04-25T03:10:41.091Z,95737.91
2023-04-25T03:12:12.748Z,95741.31
2023-04-25T03:13:53.494Z,95737.88
2023-04-25T03:15:25.278Z,95737.09
2023-04-25T03:16:56.979Z,95737.66
2023-04-25T03:18:28.620Z,95735.34
2023-04-25T03:20:00.503Z,95732.88
2023-04-25T03:21:33.249Z,95733.44
2023-04-25T03:23:04.900Z,95722.84
2023-04-25T03:24:38.266Z,95740.72
2023-04-25T03:26:09.896Z,95732.00
2023-04-25T03:27:41.492Z,95731.78
2023-04-25T03:29:13.214Z,95730.91
2023-04-25T03:30:44.840Z,95728.94
2023-04-25T03:32:16.509Z,95730.00
2023-04-25T03:33:48.241Z,95732.63
2023-04-25T03:35:19.961Z,95730.97
2023-04-25T03:36:51.650Z,95726.56
2023-04-25T03:38:23.252Z,95726.00
2023-04-25T03:39:56.207Z,95730.88
2023-04-25T03:41:28.797Z,95734.09
2023-04-25T03:43:00.607Z,95729.94
2023-04-25T03:44:32.356Z,95731.59
2023-04-25T03:46:04.339Z,95734.19
2023-04-25T03:47:36.032Z,95730.75
2023-04-25T03:49:07.683Z,95735.72
2023-04-25T03:50:39.323Z,95726.50
2023-04-25T03:52:10.934Z,95722.81
2023-04-25T03:53:42.622Z,95729.75
2023-04-25T03:55:15.741Z,95729.13
2023-04-25T03:56:47.521Z,95725.03
2023-04-25T03:58:19.173Z,95726.34
2023-04-25T03:59:50.846Z,95721.38
2023-04-25T04:01:22.468Z,95719.72
2023-04-25T04:02:54.233Z,95723.25
2023-04-25T04:04:26.353Z,95721.81
2023-04-25T04:05:59.469Z,95718.13
2023-04-25T04:07:33.117Z,95721.34
2023-04-25T04:09:05.030Z,95723.44
2023-04-25T04:10:38.075Z,95721.47
2023-04-25T04:12:09.774Z,95718.75
2023-04-25T04:13:41.470Z,95711.72
2023-04-25T04:15:13.162Z,95722.75
2023-04-25T04:16:44.868Z,95717.13
2023-04-25T04:18:16.604Z,95714.19
2023-04-25T04:19:48.270Z,95705.72
2023-04-25T04:21:19.891Z,95706.03
2023-04-25T04:22:51.483Z,95711.91
2023-04-25T04:24:23.165Z,95717.03
2023-04-25T04:25:56.252Z,95704.09
2023-04-25T04:27:28.997Z,95706.75
2023-04-25T04:29:01.272Z,95707.47
2023-04-25T04:30:34.348Z,95715.81
2023-04-25T04:32:09.711Z,95716.41
2023-04-25T04:33:41.538Z,95720.41
2023-04-25T04:35:13.142Z,95714.91
2023-04-25T04:36:47.106Z,95713.47
2023-04-25T04:38:19.708Z,95709.50
2023-04-25T04:39:51.389Z,95720.06
2023-04-25T04:41:24.703Z,95718.66
2023-04-25T04:42:57.650Z,95709.38
2023-04-25T04:44:30.603Z,95710.72
2023-04-25T04:46:02.512Z,95716.22
2023-04-25T04:47:35.114Z,95714.47
2023-04-25T04:49:09.683Z,95723.41
2023-04-25T04:50:42.007Z,95716.25
2023-04-25T04:52:13.829Z,95717.44
2023-04-25T04:53:45.560Z,95717.78
2023-04-25T04:55:17.164Z,95724.06
2023-04-25T04:56:51.196Z,95718.91
2023-04-25T04:58:22.872Z,95717.19
2023-04-25T04:59:54.586Z,95720.31
2023-04-25T05:01:27.152Z,95720.94
2023-04-25T05:02:59.201Z,95713.22
2023-04-25T05:04:31.038Z,95714.28
2023-04-25T05:06:03.385Z,95719.16
2023-04-25T05:07:35.042Z,95711.53
2023-04-25T05:09:09.288Z,95716.28
2023-04-25T05:10:40.995Z,95721.47
2023-04-25T05:12:13.977Z,95718.19
2023-04-25T05:13:46.625Z,95715.06
2023-04-25T05:15:18.373Z,95710.41
2023-04-25T05:16:50.014Z,95709.13
2023-04-25T05:18:23.767Z,95714.84
2023-04-25T05:19:55.637Z,95715.13
2023-04-25T05:21:28.309Z,95709.59
2023-04-25T05:22:59.940Z,95708.63
2023-04-25T05:24:31.925Z,95714.28
2023-04-25T05:26:03.589Z,95708.66
2023-04-25T05:27:36.769Z,95715.09
2023-04-25T05:29:08.433Z,95712.31
2023-04-25T05:30:40.261Z,95711.88
2023-04-25T05:32:12.175Z,95716.72
2023-04-25T05:33:44.065Z,95704.97
2023-04-25T05:35:16.082Z,95710.47
2023-04-25T05:36:49.522Z,95707.47
2023-04-25T05:38:21.488Z,95712.63
2023-04-25T05:39:53.251Z,95713.03
2023-04-25T05:41:25.132Z,95712.47
2023-04-25T05:42:58.131Z,95719.50
2023-04-25T05:44:29.826Z,95717.19
2023-04-25T05:46:03.493Z,95725.31
2023-04-25T05:47:35.256Z,95719.75
2023-04-25T05:49:06.884Z,95716.84
2023-04-25T05:50:38.590Z,95712.75
2023-04-25T05:52:11.000Z,95716.50
2023-04-25T05:53:42.645Z,95721.47
2023-04-25T05:55:14.917Z,95717.28
2023-04-25T05:56:46.538Z,95721.91
2023-04-25T05:58:19.517Z,95718.22
2023-04-25T05:59:51.297Z,95712.81
2023-04-25T06:01:23.316Z,95714.03
2023-04-25T06:02:55.167Z,95709.81
2023-04-25T06:04:27.168Z,95718.03
2023-04-25T06:05:59.080Z,95708.88
2023-04-25T06:07:33.481Z,95714.63
2023-04-25T06:09:05.158Z,95713.59
2023-04-25T06:10:36.946Z,95714.03
2023-04-25T06:12:08.592Z,95712.31
2023-04-25T06:13:41.679Z,95713.28
2023-04-25T06:15:24.568Z,95711.22
2023-04-25T06:17:00.183Z,95714.72
2023-04-25T06:18:31.806Z,95707.19
2023-04-25T06:20:06.902Z,95714.63
2023-04-25T06:21:38.720Z,95707.53
2023-04-25T06:23:10.547Z,95704.88
2023-04-25T06:24:42.189Z,95708.38
2023-04-25T06:26:13.823Z,95707.00
2023-04-25T06:27:45.578Z,95709.66
2023-04-25T06:29:18.640Z,95703.75
2023-04-25T06:30:50.285Z,95703.00
2023-04-25T06:32:21.977Z,95703.06
2023-04-25T06:33:55.744Z,95707.44
2023-04-25T06:35:27.393Z,95710.34
2023-04-25T06:36:59.008Z,95705.72
2023-04-25T06:38:30.857Z,95704.50
2023-04-25T06:40:03.396Z,95700.03
2023-04-25T06:41:35.018Z,95710.75
2023-04-25T06:43:06.938Z,95708.59
2023-04-25T06:44:40.035Z,95702.06
2023-04-25T06:46:11.975Z,95703.03
2023-04-25T06:47:44.005Z,95708.34
2023-04-25T06:49:15.624Z,95707.50
2023-04-25T06:50:47.286Z,95698.06
2023-04-25T06:52:19.101Z,95700.09
2023-04-25T06:53:50.786Z,95698.38
2023-04-25T06:55:22.428Z,95702.50
2023-04-25T06:56:54.167Z,95695.72
2023-04-25T06:58:27.116Z,95703.56
2023-04-25T07:00:02.088Z,95696.50
2023-04-25T07:01:34.187Z,95697.75
2023-04-25T07:03:06.010Z,95701.53
2023-04-25T07:04:37.792Z,95702.00
2023-04-25T07:06:09.633Z,95700.91
2023-04-25T07:07:41.429Z,95699.00
2023-04-25T07:09:13.029Z,95692.44
2023-04-25T07:10:44.688Z,95701.56
2023-04-25T07:12:16.306Z,95691.03
2023-04-25T07:13:47.920Z,95699.22
2023-04-25T07:15:21.295Z,95702.09
2023-04-25T07:16:53.180Z,95699.88
2023-04-25T07:18:24.872Z,95702.25
2023-04-25T07:19:56.522Z,95706.72
2023-04-25T07:21:32.432Z,95702.00
2023-04-25T07:23:04.085Z,95724.31
2023-04-25T07:24:35.677Z,95711.97
2023-04-25T07:26:07.388Z,95721.16
2023-04-25T07:27:39.119Z,95717.31
2023-04-25T07:29:10.757Z,95716.72
2023-04-25T07:30:46.253Z,95711.16
2023-04-25T07:32:18.020Z,95718.22
2023-04-25T07:33:49.726Z,95728.31
2023-04-25T07:35:21.424Z,95731.00
2023-04-25T07:36:53.597Z,95733.75
2023-04-25T07:38:25.317Z,95737.78
2023-04-25T07:39:56.981Z,95743.34
2023-04-25T07:41:40.533Z,95747.16
2023-04-25T07:43:15.359Z,95757.22
2023-04-25T07:44:47.235Z,95747.69
2023-04-25T07:46:25.460Z,95751.66
2023-04-25T07:47:57.265Z,95748.63
2023-04-25T07:49:28.900Z,95750.44
2023-04-25T07:51:00.584Z,95748.28
2023-04-25T07:52:41.834Z,95753.22
2023-04-25T07:54:15.107Z,95748.44
2023-04-25T07:55:46.715Z,95762.59
2023-04-25T07:57:19.272Z,95770.00
2023-04-25T07:58:51.352Z,95763.41
2023-04-25T08:00:23.184Z,95768.47
2023-04-25T08:01:57.913Z,95767.78
2023-04-25T08:03:29.670Z,95769.47
2023-04-25T08:05:01.650Z,95769.31
2023-04-25T08:06:33.980Z,95766.59
2023-04-25T08:08:07.449Z,95779.00
2023-04-25T08:09:39.096Z,95777.38
2023-04-25T08:11:11.578Z,95772.00
2023-04-25T08:12:43.233Z,95770.44
2023-04-25T08:14:14.832Z,95777.47
2023-04-25T08:15:46.547Z,95779.81
2023-04-25T08:17:19.670Z,95773.47
2023-04-25T08:18:51.607Z,95781.47
2023-04-25T08:20:23.709Z,95781.72
2023-04-25T08:21:56.648Z,95799.09
2023-04-25T08:23:28.979Z,95783.69
2023-04-25T08:25:00.663Z,95792.22
2023-04-25T08:26:33.102Z,95804.00
2023-04-25T08:28:04.778Z,95791.28
2023-04-25T08:29:36.542Z,95797.47
2023-04-25T08:31:08.222Z,95798.88
2023-04-25T08:32:41.246Z,95792.84
2023-04-25T08:34:12.966Z,95795.50
2023-04-25T08:35:45.363Z,95801.91
2023-04-25T08:37:17.334Z,95798.25
2023-04-25T08:38:49.316Z,95800.34
2023-04-25T08:40:26.935Z,95804.09
2023-04-25T08:41:58.583Z,95801.31
2023-04-25T08:43:30.725Z,95802.06
2023-04-25T08:45:04.482Z,95808.28
2023-04-25T08:46:39.213Z,95805.66
2023-04-25T08:48:12.832Z,95811.16
2023-04-25T08:49:46.070Z,95809.63
2023-04-25T08:51:23.227Z,95818.88
2023-04-25T08:52:55.219Z,95810.56
2023-04-25T08:54:34.553Z,95810.00
2023-04-25T08:56:07.494Z,95813.88
2023-04-25T08:57:39.504Z,95819.41
2023-04-25T08:59:11.461Z,95812.09
2023-04-25T09:00:43.240Z,95798.16
2023-04-25T09:02:17.742Z,95818.56
2023-04-25T09:03:51.189Z,95830.28
2023-04-25T09:05:23.866Z,95830.28
2023-04-25T09:06:55.530Z,95826.19
2023-04-25T09:08:27.191Z,95832.06
2023-04-25T09:10:00.814Z,95838.13
2023-04-25T09:11:32.523Z,95843.97
2023-04-25T09:15:06.799Z,95850.81
2023-04-25T09:16:57.224Z,95851.38
2023-04-25T09:18:30.878Z,95857.78
2023-04-25T09:20:11.638Z,95856.69
2023-04-25T09:21:43.534Z,95854.91
2023-04-25T09:23:15.545Z,95858.44
2023-04-25T09:24:48.115Z,95869.25
2023-04-25T09:26:20.380Z,95859.09
2023-04-25T09:27:53.113Z,95871.47
2023-04-25T09:29:30.338Z,95870.69
2023-04-25T09:31:02.399Z,95876.91
2023-04-25T09:32:34.216Z,95875.84
2023-04-25T09:34:06.272Z,95877.88
2023-04-25T09:35:40.028Z,95875.88
2023-04-25T09:37:11.869Z,95880.53
2023-04-25T09:38:45.212Z,95878.50
2023-04-25T09:40:16.886Z,95889.41
2023-04-25T09:41:48.540Z,95882.25
2023-04-25T09:43:21.182Z,95884.22
2023-04-25T09:44:53.240Z,95891.84
2023-04-25T09:46:26.346Z,95889.38
2023-04-25T09:47:59.145Z,95888.69
2023-04-25T09:49:30.927Z,95890.31
2023-04-25T09:51:07.817Z,95885.22
2023-04-25T09:52:39.448Z,95893.75
2023-04-25T09:54:11.279Z,95907.56
2023-04-25T09:55:43.107Z,95890.78
2023-04-25T09:57:15.866Z,95897.34
2023-04-25T09:58:47.453Z,95895.47
2023-04-25T10:00:20.571Z,95891.59
2023-04-25T10:01:52.385Z,95894.44
2023-04-25T10:03:24.207Z,95889.19
2023-04-25T10:04:56.593Z,95895.16
2023-04-25T10:06:30.606Z,95892.91
2023-04-25T10:08:04.143Z,95898.75
2023-04-25T10:09:37.809Z,95893.72
2023-04-25T10:11:09.743Z,95889.38
2023-04-25T10:12:41.934Z,95893.63
2023-04-25T10:14:13.639Z,95893.53
2023-04-25T10:15:57.962Z,95881.16
2023-04-25T10:17:29.738Z,95891.66
2023-04-25T10:19:03.876Z,95896.22
2023-04-25T10:20:35.895Z,95896.22
2023-04-25T10:22:09.652Z,95892.72
2023-04-25T10:23:41.446Z,95901.72
2023-04-25T10:25:13.253Z,95899.09
2023-04-25T10:26:44.872Z,95893.69
2023-04-25T10:28:16.528Z,95897.63
2023-04-25T10:29:48.153Z,95891.75
2023-04-25T10:31:19.843Z,95894.94
2023-04-25T10:32:51.870Z,95899.41
2023-04-25T10:34:39.726Z,95893.53
2023-04-25T10:36:12.419Z,95892.06
2023-04-25T10:38:01.393Z,95898.03
2023-04-25T10:39:33.651Z,95895.16
2023-04-25T10:41:06.109Z,95895.06
2023-04-25T10:42:37.746Z,95884.63
2023-04-25T10:44:09.679Z,95895.75
2023-04-25T10:45:52.243Z,95894.31
2023-04-25T10:47:35.315Z,95895.44
2023-04-25T10:49:10.836Z,95897.13
2023-04-25T10:50:42.406Z,95895.69
2023-04-25T10:52:18.366Z,95894.19
2023-04-25T10:54:01.510Z,95898.31
2023-04-25T10:55:53.328Z,95896.38
2023-04-25T10:57:37.515Z,95895.75
2023-04-25T10:59:11.078Z,95908.59
2023-04-25T11:00:56.766Z,95894.72
2023-04-25T11:02:30.079Z,95906.88
2023-04-25T11:04:02.149Z,95901.88
2023-04-25T11:05:38.562Z,95900.41
2023-04-25T11:07:21.196Z,95909.03
2023-04-25T11:08:53.128Z,95912.94
2023-04-25T11:10:29.491Z,95910.78
2023-04-25T11:12:01.415Z,95910.94
2023-04-25T11:13:33.055Z,95916.53
2023-04-25T11:15:07.022Z,95913.63
2023-04-25T11:16:41.415Z,95903.75
2023-04-25T11:18:17.004Z,95915.09
2023-04-25T11:19:49.987Z,95912.41
2023-04-25T11:21:21.981Z,95911.22
2023-04-25T11:22:53.626Z,95901.53
2023-04-25T11:24:26.889Z,95906.75
2023-04-25T11:26:02.275Z,95908.81
2023-04-25T11:27:34.022Z,95909.00
2023-04-25T11:29:05.914Z,95908.50
2023-04-25T11:30:39.975Z,95916.03
2023-04-25T11:32:11.686Z,95906.19
2023-04-25T11:33:43.662Z,95908.16
2023-04-25T11:35:16.314Z,95907.88
2023-04-25T11:36:48.136Z,95903.63
2023-04-25T11:38:20.395Z,95904.16
2023-04-25T11:39:53.290Z,95906.47
2023-04-25T11:41:26.768Z,95892.41
2023-04-25T11:43:00.583Z,95902.84
2023-04-25T11:44:32.238Z,95894.59
2023-04-25T11:46:07.560Z,95899.63
2023-04-25T11:47:39.333Z,95903.28
2023-04-25T11:49:10.994Z,95898.56
2023-04-25T11:50:42.641Z,95888.97
2023-04-25T11:52:14.317Z,95895.06
2023-04-25T11:53:45.974Z,95899.78
2023-04-25T11:55:18.615Z,95901.84
2023-04-25T11:56:51.655Z,95906.84
2023-04-25T11:58:23.260Z,95920.53
2023-04-25T11:59:54.886Z,95927.97
2023-04-25T12:01:30.113Z,95937.63
2023-04-25T12:03:04.113Z,95935.66
2023-04-25T12:04:36.245Z,95940.28
2023-04-25T12:06:08.417Z,95933.91
2023-04-25T12:07:40.173Z,95929.44
2023-04-25T12:09:12.322Z,95924.06
2023-04-25T12:10:45.919Z,95922.38
2023-04-25T12:12:18.895Z,95922.72
2023-04-25T12:13:52.635Z,95921.88
2023-04-25T12:15:25.383Z,95927.69
2023-04-25T12:16:58.779Z,95923.38
2023-04-25T12:18:31.303Z,95934.38
2023-04-25T12:20:08.482Z,95935.25
2023-04-25T12:21:50.526Z,95940.66
2023-04-25T12:23:29.636Z,95948.59
2023-04-25T12:25:01.626Z,95950.63
2023-04-25T12:26:47.353Z,95953.84
2023-04-25T12:28:21.313Z,95946.50
2023-04-25T12:29:53.719Z,95941.41
2023-04-25T12:31:25.412Z,95948.75
2023-04-25T12:32:57.185Z,95949.28
2023-04-25T12:34:28.919Z,95954.28
2023-04-25T12:36:01.283Z,95952.28
2023-04-25T12:37:33.005Z,95959.09
2023-04-25T12:39:05.259Z,95954.47
2023-04-25T12:40:36.912Z,95956.41
2023-04-25T12:42:14.492Z,95950.56
2023-04-25T12:43:47.592Z,95963.38
2023-04-25T12:45:19.267Z,95961.75
2023-04-25T12:46:51.182Z,95955.56
2023-04-25T12:48:23.258Z,95960.97
2023-04-25T12:49:54.900Z,95958.28
2023-04-25T12:51:28.709Z,95959.16
2023-04-25T12:53:01.032Z,95950.00
2023-04-25T12:54:32.693Z,95950.59
2023-04-25T12:56:04.900Z,95952.03
2023-04-25T12:57:36.550Z,95949.78
2023-04-25T12:59:10.353Z,95952.06
2023-04-25T13:00:42.099Z,95950.88
2023-04-25T13:02:13.912Z,95951.59
2023-04-25T13:03:45.998Z,95947.88
2023-04-25T13:05:18.000Z,95950.19
2023-04-25T13:06:49.639Z,95946.09
2023-04-25T13:08:21.739Z,95946.13
2023-04-25T13:09:53.496Z,95942.25
2023-04-25T13:11:25.340Z,95939.84
2023-04-25T13:12:57.032Z,95936.59
2023-04-25T13:14:30.076Z,95925.09
2023-04-25T13:16:01.760Z,95930.19
2023-04-25T13:17:33.441Z,95939.25
2023-04-25T13:19:05.274Z,95932.47
2023-04-25T13:20:36.928Z,95926.31
2023-04-25T13:22:08.644Z,95938.28
2023-04-25T13:23:41.659Z,95939.25
2023-04-25T13:25:13.650Z,95940.66
2023-04-25T13:26:45.298Z,95938.34
2023-04-25T13:28:17.031Z,95941.25
2023-04-25T13:29:50.065Z,95942.84
2023-04-25T13:31:22.143Z,95946.44
2023-04-25T13:32:57.222Z,95939.09
2023-04-25T13:34:29.375Z,95945.16
2023-04-25T13:36:01.858Z,95946.59
2023-04-25T13:37:33.745Z,95947.13
2023-04-25T13:39:06.206Z,95951.06
2023-04-25T13:40:38.022Z,95951.94
2023-04-25T13:42:09.661Z,95943.78
2023-04-25T13:43:41.362Z,95952.00
2023-04-25T13:45:14.478Z,95943.31
2023-04-25T13:46:47.785Z,95943.19
2023-04-25T13:48:19.664Z,95951.97
2023-04-25T13:49:51.496Z,95944.34
2023-04-25T13:51:23.126Z,95954.03
2023-04-25T13:52:54.757Z,95959.25
2023-04-25T13:54:26.824Z,95955.72
2023-04-25T13:55:58.448Z,95957.59
2023-04-25T13:57:30.204Z,95952.31
2023-04-25T13:59:01.884Z,95949.25
2023-04-25T14:00:41.215Z,95957.41
2023-04-25T14:02:13.100Z,95962.72
2023-04-25T14:03:47.822Z,95962.59
2023-04-25T14:05:19.595Z,95963.16
2023-04-25T14:06:51.799Z,95969.91
2023-04-25T14:08:23.540Z,95968.69
2023-04-25T14:09:55.206Z,95969.03
2023-04-25T14:11:26.830Z,95974.25
2023-04-25T14:12:58.476Z,95976.03
2023-04-25T14:14:30.194Z,95968.00
2023-04-25T14:16:03.618Z,95972.53
2023-04-25T14:17:35.316Z,95971.44
2023-04-25T14:19:06.992Z,95962.75
2023-04-25T14:20:38.578Z,95969.31
2023-04-25T14:22:10.419Z,95972.13
2023-04-25T14:23:42.399Z,95984.41
2023-04-25T14:25:14.127Z,95979.59
2023-04-25T14:26:46.089Z,95973.22
2023-04-25T14:28:17.800Z,95981.75
2023-04-25T14:29:49.496Z,95974.16
2023-04-25T14:31:22.790Z,95980.63
2023-04-25T14:32:54.783Z,95978.44
2023-04-25T14:34:26.746Z,95983.75
2023-04-25T14:35:58.346Z,95982.63
2023-04-25T14:37:29.981Z,95980.97
2023-04-25T14:39:02.084Z,95978.31
2023-04-25T14:40:33.805Z,95983.41
2023-04-25T14:42:05.716Z,95982.09
2023-04-25T14:43:37.817Z,95983.19
2023-04-25T14:45:10.113Z,95987.28
2023-04-25T14:46:43.266Z,95984.88
2023-04-25T14:48:15.034Z,95995.22
2023-04-25T14:49:52.199Z,95989.16
2023-04-25T14:51:24.088Z,95994.84
2023-04-25T14:52:59.654Z,95995.97
2023-04-25T14:54:31.338Z,95993.63
2023-04-25T14:56:03.039Z,95991.84
2023-04-25T14:57:35.189Z,95992.13
2023-04-25T14:59:06.856Z,95980.66
2023-04-25T15:00:39.142Z,95991.41
2023-04-25T15:02:12.288Z,95997.06
2023-04-25T15:03:44.081Z,96004.28
2023-04-25T15:05:16.177Z,96004.53
2023-04-25T15:06:48.030Z,95996.69
2023-04-25T15:08:19.615Z,96001.72
2023-04-25T15:09:51.241Z,96002.22
2023-04-25T15:11:23.132Z,96008.69
2023-04-25T15:12:54.747Z,96001.94
2023-04-25T15:14:26.462Z,95998.41
2023-04-25T15:15:58.113Z,95999.59
2023-04-25T15:17:32.345Z,96002.00
2023-04-25T15:19:04.839Z,96002.38
2023-04-25T15:20:36.650Z,96003.50
2023-04-25T15:22:08.243Z,96003.00
2023-04-25T15:23:39.927Z,96005.94
2023-04-25T15:25:14.419Z,96001.84
2023-04-25T15:26:46.908Z,96003.03
2023-04-25T15:28:19.073Z,96002.25
2023-04-25T15:29:50.694Z,96016.88
2023-04-25T15:31:22.710Z,96005.72
2023-04-25T15:32:56.336Z,96019.41
2023-04-25T15:34:28.137Z,96015.34
2023-04-25T15:36:00.127Z,96008.47
2023-04-25T15:37:31.784Z,96012.31
2023-04-25T15:39:03.570Z,96012.31
2023-04-25T15:40:35.324Z,96017.59
2023-04-25T15:42:06.982Z,96004.25
2023-04-25T15:43:38.877Z,96013.97
2023-04-25T15:45:11.397Z,96014.94
2023-04-25T15:46:44.388Z,96014.56
2023-04-25T15:48:17.473Z,96015.06
2023-04-25T15:49:49.241Z,96011.88
2023-04-25T15:51:21.344Z,96014.75
2023-04-25T15:52:53.248Z,96012.69
2023-04-25T15:54:24.864Z,96010.69
2023-04-25T15:55:56.453Z,96019.34
2023-04-25T15:57:28.619Z,96015.31
2023-04-25T15:59:00.254Z,96015.97
2023-04-25T16:00:34.926Z,96016.00
2023-04-25T16:02:35.958Z,96016.81
2023-04-25T16:04:09.205Z,96017.38
2023-04-25T16:05:41.632Z,96010.44
2023-04-25T16:07:13.281Z,96009.59
2023-04-25T16:08:45.081Z,96004.44
2023-04-25T16:10:21.425Z,96007.41
2023-04-25T16:11:53.213Z,96010.63
2023-04-25T16:13:26.729Z,96001.41
2023-04-25T16:15:05.048Z,96008.81
2023-04-25T16:16:36.784Z,96001.41
2023-04-25T16:18:08.558Z,96011.00
2023-04-25T16:19:41.564Z,96013.31
2023-04-25T16:21:17.120Z,96011.66
2023-04-25T16:22:49.029Z,96019.97
2023-04-25T16:24:20.678Z,96020.03
2023-04-25T16:25:52.417Z,96023.91
2023-04-25T16:27:23.998Z,96032.72
2023-04-25T16:28:55.780Z,96027.63
2023-04-25T16:30:27.439Z,96027.34
2023-04-25T16:31:59.227Z,96035.06
2023-04-25T16:33:31.203Z,96034.44
2023-04-25T16:35:05.090Z,96037.38
2023-04-25T16:36:36.828Z,96042.31
2023-04-25T16:38:08.557Z,96053.81
2023-04-25T16:39:42.961Z,96056.41
2023-04-25T16:41:14.695Z,96066.97
2023-04-25T16:42:46.604Z,96070.72
2023-04-25T16:44:18.219Z,96084.88
2023-04-25T16:45:51.734Z,96076.81
2023-04-25T16:47:23.506Z,96081.03
2023-04-25T16:48:55.187Z,96071.09
2023-04-25T16:50:28.271Z,96082.13
2023-04-25T16:51:59.906Z,96080.41
2023-04-25T16:53:32.620Z,96078.16
2023-04-25T16:55:04.832Z,96083.47
2023-04-25T16:56:36.901Z,96079.16
2023-04-25T16:58:11.246Z,96089.00
2023-04-25T16:59:42.935Z,96076.84
2023-04-25T17:01:17.020Z,96079.28
2023-04-25T17:02:48.878Z,96076.69
2023-04-25T17:04:20.715Z,96079.22
2023-04-25T17:05:56.684Z,96087.00
2023-04-25T17:07:28.534Z,96082.22
2023-04-25T17:09:00.527Z,96085.84
2023-04-25T17:10:32.167Z,96089.75
2023-04-25T17:12:04.027Z,96093.56
2023-04-25T17:13:35.766Z,96092.44
2023-04-25T17:15:08.410Z,96094.94
2023-04-25T17:16:40.218Z,96092.09
2023-04-25T17:18:11.922Z,96098.94
2023-04-25T17:19:43.624Z,96098.94
2023-04-25T17:21:16.647Z,96101.63
2023-04-25T17:22:48.247Z,96098.41
2023-04-25T17:24:21.949Z,96098.06
2023-04-25T17:25:53.704Z,96104.16
2023-04-25T17:27:25.744Z,96107.59
2023-04-25T17:28:57.568Z,96101.59
2023-04-25T17:30:39.464Z,96109.09
2023-04-25T17:32:11.514Z,96100.78
2023-04-25T17:33:43.162Z,96105.13
2023-04-25T17:35:17.070Z,96107.94
2023-04-25T17:36:50.321Z,96109.72
2023-04-25T17:38:22.116Z,96102.78
2023-04-25T17:39:58.486Z,96100.03
2023-04-25T17:41:30.205Z,96100.47
2023-04-25T17:43:01.912Z,96107.56
2023-04-25T17:44:33.526Z,96108.00
2023-04-25T17:46:10.330Z,96105.91
2023-04-25T17:47:42.276Z,96110.44
2023-04-25T17:49:13.891Z,96116.09
2023-04-25T17:50:45.636Z,96117.09
2023-04-25T17:52:18.559Z,96118.84
2023-04-25T17:53:50.334Z,96114.84
2023-04-25T17:55:21.991Z,96117.84
2023-04-25T17:56:54.348Z,96118.41
2023-04-25T17:58:25.974Z,96120.63
2023-04-25T17:59:57.842Z,96132.03
2023-04-25T18:01:30.334Z,96116.84
2023-04-25T18:03:02.283Z,96121.81
2023-04-25T18:04:35.422Z,96129.88
2023-04-25T18:06:07.112Z,96133.88
2023-04-25T18:07:40.235Z,96133.56
2023-04-25T18:09:18.153Z,96143.22
2023-04-25T18:10:49.920Z,96138.44
2023-04-25T18:12:21.576Z,96138.97
2023-04-25T18:13:53.296Z,96143.31